Time;durP1;ratioP1;P1;durP2;ratioP2;P2;SDS_P1;SDS_P2;PMS_P1;PMS_P2;Temp;Humidity;BMP_temperature;BMP_pressure;BME280_temperature;BME280_humidity;BME280_pressure;Samples;Min_cycle;Max_cycle;Signal;HPM_P1;HPM_P2
2022/10/26 00:00:45;;;;;;;0.80;0.80;;;;;;;18.55;100.00;100453.13;5076169;28;20230;-72
2022/10/26 00:03:12;;;;;;;0.75;0.75;;;;;;;18.54;100.00;100443.50;5071972;28;20206;-72
2022/10/26 00:05:39;;;;;;;0.80;0.80;;;;;;;18.59;100.00;100453.06;5085179;28;20202;-74
2022/10/26 00:08:06;;;;;;;0.80;0.80;;;;;;;18.61;100.00;100453.06;5074903;28;20230;-72
2022/10/26 00:10:34;;;;;;;0.80;0.80;;;;;;;18.61;100.00;100453.06;5072961;28;20221;-72
2022/10/26 00:13:02;;;;;;;0.80;0.80;;;;;;;18.62;100.00;100455.66;5075838;28;20191;-72
2022/10/26 00:15:30;;;;;;;0.80;0.80;;;;;;;18.58;100.00;100439.97;5076941;28;20252;-72
2022/10/26 00:17:57;;;;;;;0.73;0.73;;;;;;;18.62;100.00;100445.13;5022682;28;20209;-72
2022/10/26 00:20:23;;;;;;;0.82;0.82;;;;;;;18.58;100.00;100453.09;5074847;28;20233;-72
2022/10/26 00:22:50;;;;;;;0.80;0.80;;;;;;;18.64;100.00;100442.50;5074827;28;20198;-73
2022/10/26 00:25:17;;;;;;;0.80;0.80;;;;;;;18.54;100.00;100433.00;5076084;28;20210;-72
2022/10/26 00:27:44;;;;;;;0.80;0.80;;;;;;;18.51;100.00;100451.44;5044032;28;20791;-72
2022/10/26 00:30:11;;;;;;;0.90;0.90;;;;;;;18.46;100.00;100437.44;5024146;28;20194;-72
2022/10/26 00:32:39;;;;;;;0.70;0.70;;;;;;;18.59;100.00;100431.19;5078897;28;20198;-72
2022/10/26 00:35:06;;;;;;;0.80;0.80;;;;;;;18.32;100.00;100433.22;5082140;28;20216;-72
2022/10/26 00:37:33;;;;;;;0.73;0.73;;;;;;;18.31;100.00;100449.84;5040170;28;20195;-73
2022/10/26 00:39:59;;;;;;;0.70;0.70;;;;;;;18.22;100.00;100444.72;5074716;28;20217;-72
2022/10/26 00:42:26;;;;;;;0.90;0.90;;;;;;;18.24;100.00;100457.78;5074241;28;20250;-69
2022/10/26 00:44:59;;;;;;;0.80;0.80;;;;;;;18.30;100.00;100463.84;5073501;28;20195;-72
2022/10/26 00:47:33;;;;;;;0.80;0.80;;;;;;;18.30;100.00;100455.97;5073901;28;20195;-73
2022/10/26 00:50:06;;;;;;;0.82;0.82;;;;;;;18.24;100.00;100463.91;5077571;28;20282;-72
2022/10/26 00:52:33;;;;;;;0.80;0.80;;;;;;;18.12;100.00;100453.53;5056484;28;20357;-72
2022/10/26 00:55:00;;;;;;;0.80;0.80;;;;;;;18.03;100.00;100437.88;5077115;28;20199;-72
2022/10/26 00:57:30;;;;;;;0.80;0.80;;;;;;;18.29;100.00;100461.25;5075738;28;20206;-72
2022/10/26 00:59:59;;;;;;;0.90;0.90;;;;;;;18.07;100.00;100442.22;5073662;28;20198;-72
2022/10/26 01:02:26;;;;;;;0.80;0.80;;;;;;;18.15;100.00;100471.91;5076043;28;20237;-72
2022/10/26 01:04:54;;;;;;;0.70;0.70;;;;;;;18.20;100.00;100472.72;5077346;28;20194;-74
2022/10/26 01:07:22;;;;;;;1.30;1.30;;;;;;;18.22;100.00;100475.34;5079765;28;20202;-72
2022/10/26 01:09:49;;;;;;;0.80;0.80;;;;;;;18.05;100.00;100467.59;5073564;28;20955;-72
2022/10/26 01:12:16;;;;;;;0.90;0.90;;;;;;;18.12;100.00;100471.91;5072187;28;20202;-73
2022/10/26 01:14:43;;;;;;;0.80;0.80;;;;;;;18.14;100.00;100477.16;5073844;28;20540;-73
2022/10/26 01:17:25;;;;;;;1.15;1.15;;;;;;;18.16;100.00;100476.25;5073406;28;20965;-73
2022/10/26 01:20:33;;;;;;;0.90;0.90;;;;;;;18.15;100.00;100473.66;5073714;28;20217;-73
2022/10/26 01:23:09;;;;;;;1.30;1.30;;;;;;;18.09;100.00;100478.94;5050375;28;20200;-73
2022/10/26 01:25:48;;;;;;;0.80;0.80;;;;;;;18.01;100.00;100455.41;5053109;28;20207;-73
2022/10/26 01:28:30;;;;;;;0.80;0.80;;;;;;;18.04;100.00;100471.13;5075860;28;20669;-73
2022/10/26 01:31:02;;;;;;;0.90;0.90;;;;;;;18.10;100.00;100475.44;5074702;28;20682;-73
2022/10/26 01:33:37;;;;;;;0.80;0.80;;;;;;;18.10;100.00;100476.31;5075663;28;20279;-73
2022/10/26 01:36:12;;;;;;;0.80;0.80;;;;;;;17.99;100.00;100482.53;5079397;28;20194;-73
2022/10/26 01:38:47;;;;;;;0.90;0.90;;;;;;;18.02;100.00;100480.75;5074308;28;20197;-73
2022/10/26 01:41:20;;;;;;;0.80;0.80;;;;;;;17.86;100.00;100468.66;5061277;28;20640;-73
2022/10/26 01:43:54;;;;;;;1.15;1.15;;;;;;;17.89;100.00;100476.50;5038073;28;20199;-72
2022/10/26 01:46:24;;;;;;;0.90;0.90;;;;;;;18.01;100.00;100481.66;5052051;28;20204;-73
2022/10/26 01:48:57;;;;;;;0.90;0.90;;;;;;;17.99;100.00;100483.41;5071178;28;20643;-74
2022/10/26 01:51:26;;;;;;;0.80;0.80;;;;;;;17.73;100.00;100460.00;5076038;28;20253;-74
2022/10/26 01:53:53;;;;;;;0.80;0.80;;;;;;;17.76;100.00;100488.00;5071296;28;20202;-74
2022/10/26 01:56:22;;;;;;;0.80;0.80;;;;;;;17.85;100.00;100495.78;5046698;28;20204;-72
2022/10/26 01:59:12;;;;;;;0.85;0.85;;;;;;;17.81;100.00;100480.94;5073455;28;20198;-72
2022/10/26 02:02:33;;;;;;;0.80;0.80;;;;;;;17.85;100.00;100495.78;5074604;28;20223;-75
2022/10/26 02:05:24;;;;;;;0.80;0.80;;;;;;;17.67;100.00;100493.28;5071604;28;20203;-73
2022/10/26 02:08:03;;;;;;;0.80;0.80;;;;;;;17.60;100.00;100495.09;5074632;28;20202;-72
2022/10/26 02:10:42;;;;;;;1.00;1.00;;;;;;;17.48;100.00;100479.38;5073929;28;20202;-72
2022/10/26 02:13:16;;;;;;;1.00;1.00;;;;;;;17.32;100.00;100468.16;5075904;28;20689;-72
2022/10/26 02:15:49;;;;;;;0.75;0.75;;;;;;;17.60;100.00;100499.44;5071554;28;20219;-73
2022/10/26 02:18:25;;;;;;;0.70;0.70;;;;;;;17.48;100.00;100500.34;5072912;28;20373;-73
2022/10/26 02:20:57;;;;;;;1.27;1.27;;;;;;;17.40;100.00;100496.06;5072274;28;20208;-72
2022/10/26 02:23:26;;;;;;;0.90;0.90;;;;;;;17.36;100.00;100474.25;5073892;28;20206;-72
2022/10/26 02:25:59;;;;;;;0.80;0.80;;;;;;;17.38;100.00;100466.34;5074546;28;20199;-72
2022/10/26 02:28:31;;;;;;;0.80;0.80;;;;;;;17.50;100.00;100497.75;5073696;28;20282;-73
2022/10/26 02:31:00;;;;;;;0.90;0.90;;;;;;;17.31;100.00;100476.88;5071970;28;20198;-73
2022/10/26 02:33:33;;;;;;;0.70;0.70;;;;;;;17.50;100.00;100503.00;5073214;28;20215;-73
2022/10/26 02:36:02;;;;;;;12.40;1.25;;;;;;;17.23;100.00;100462.94;5071469;28;20904;-73
2022/10/26 02:38:32;;;;;;;1.05;1.05;;;;;;;17.42;100.00;100499.53;5071337;28;20206;-73
2022/10/26 02:41:01;;;;;;;1.20;1.20;;;;;;;17.35;100.00;100502.19;5073588;28;20209;-73
2022/10/26 02:43:30;;;;;;;1.67;1.58;;;;;;;17.32;100.00;100494.38;5077473;28;20201;-75
2022/10/26 02:46:02;;;;;;;0.85;0.85;;;;;;;17.29;100.00;100478.66;5023878;28;20646;-73
2022/10/26 02:48:31;;;;;;;0.73;0.73;;;;;;;17.11;100.00;100470.91;5050141;28;20609;-72
2022/10/26 02:51:03;;;;;;;1.05;1.05;;;;;;;17.22;100.00;100497.91;5052110;28;20308;-72
2022/10/26 02:53:34;;;;;;;0.90;0.90;;;;;;;17.14;100.00;100483.97;5071654;28;20210;-72
2022/10/26 02:56:07;;;;;;;0.90;0.90;;;;;;;17.17;100.00;100489.19;5074433;28;20233;-72
2022/10/26 02:58:41;;;;;;;0.80;0.80;;;;;;;17.21;100.00;100492.66;5076364;28;20304;-73
2022/10/26 03:01:08;;;;;;;0.90;0.90;;;;;;;17.23;100.00;100493.53;5077657;28;20207;-73
2022/10/26 03:03:36;;;;;;;0.80;0.80;;;;;;;17.25;100.00;100507.50;5058418;28;20475;-78
2022/10/26 03:06:03;;;;;;;0.60;0.60;;;;;;;17.29;100.00;100510.13;5074779;28;20852;-74
2022/10/26 03:08:30;;;;;;;0.80;0.80;;;;;;;17.23;100.00;100494.41;5076205;28;20199;-73
2022/10/26 03:10:57;;;;;;;0.90;0.90;;;;;;;17.25;100.00;100508.38;5075394;28;20442;-77
2022/10/26 03:13:24;;;;;;;0.80;0.80;;;;;;;17.26;100.00;100518.00;5082251;28;20444;-74
2022/10/26 03:15:51;;;;;;;0.80;0.80;;;;;;;17.46;100.00;100530.09;5074166;28;20213;-74
2022/10/26 03:18:17;;;;;;;0.93;0.93;;;;;;;17.25;100.00;100520.59;5024830;28;20678;-74
2022/10/26 03:20:46;;;;;;;0.90;0.90;;;;;;;17.55;100.00;100512.56;5077009;28;21521;-74
2022/10/26 03:23:12;;;;;;;0.80;0.80;;;;;;;17.30;100.00;100518.84;5076350;28;20456;-74
2022/10/26 03:25:39;;;;;;;0.80;0.80;;;;;;;17.28;100.00;100528.44;5074774;28;20206;-74
2022/10/26 03:28:06;;;;;;;0.80;0.80;;;;;;;17.24;100.00;100532.84;5074611;28;20724;-73
2022/10/26 03:30:33;;;;;;;0.90;0.90;;;;;;;17.19;100.00;100539.00;5058292;28;20202;-73
2022/10/26 03:33:00;;;;;;;0.80;0.80;;;;;;;17.03;100.00;100532.94;5077067;28;20263;-73
2022/10/26 03:35:26;;;;;;;0.80;0.80;;;;;;;17.06;100.00;100532.91;5076141;28;20627;-74
2022/10/26 03:37:54;;;;;;;0.70;0.70;;;;;;;17.10;100.00;100532.03;5073723;28;20202;-74
2022/10/26 03:40:21;;;;;;;0.90;0.90;;;;;;;16.96;100.00;100528.59;5073665;28;20211;-74
2022/10/26 03:42:48;;;;;;;0.80;0.80;;;;;;;16.86;100.00;100519.03;5074411;28;20230;-73
2022/10/26 03:45:15;;;;;;;0.73;0.73;;;;;;;16.88;100.00;100527.75;5074115;28;20444;-74
2022/10/26 03:47:45;;;;;;;0.70;0.70;;;;;;;17.06;100.00;100532.91;5073332;28;20207;-74
2022/10/26 03:50:13;;;;;;;0.90;0.90;;;;;;;16.89;100.00;100533.88;5074039;28;20241;-72
2022/10/26 03:52:40;;;;;;;0.70;0.70;;;;;;;16.86;100.00;100537.38;5054562;28;20563;-73
2022/10/26 03:55:09;;;;;;;0.80;0.80;;;;;;;16.77;100.00;100529.53;5076316;28;20203;-73
2022/10/26 03:57:40;;;;;;;0.77;0.77;;;;;;;16.87;100.00;100541.75;5056107;28;20206;-73
2022/10/26 04:00:09;;;;;;;0.60;0.60;;;;;;;16.76;100.00;100548.75;5076034;28;20207;-73
2022/10/26 04:02:35;;;;;;;0.75;0.75;;;;;;;16.80;100.00;100548.72;5078254;28;20644;-72
2022/10/26 04:05:02;;;;;;;0.80;0.80;;;;;;;16.62;100.00;100534.81;5085666;28;20199;-73
2022/10/26 04:07:29;;;;;;;0.70;0.70;;;;;;;16.69;100.00;100558.38;5074991;28;20639;-73
2022/10/26 04:09:55;;;;;;;0.60;0.60;;;;;;;16.40;100.00;100504.28;5054525;28;20679;-75
2022/10/26 04:12:24;;;;;;;0.80;0.80;;;;;;;16.72;100.00;100567.97;5079207;28;20217;-72
2022/10/26 04:14:50;;;;;;;1.30;1.30;;;;;;;16.71;100.00;100569.72;5074194;28;20958;-73
2022/10/26 04:17:17;;;;;;;0.70;0.70;;;;;;;16.66;100.00;100573.19;5079182;28;20678;-73
2022/10/26 04:19:44;;;;;;;0.70;0.70;;;;;;;16.66;100.00;100571.44;5077335;28;20660;-73
2022/10/26 04:22:11;;;;;;;0.73;0.73;;;;;;;16.60;100.00;100578.44;5072987;28;20922;-75
2022/10/26 04:24:37;;;;;;;0.65;0.65;;;;;;;16.83;100.00;100574.06;5072669;28;20287;-72
2022/10/26 04:27:04;;;;;;;0.70;0.70;;;;;;;16.56;100.00;100580.19;5077416;28;20682;-72
2022/10/26 04:29:32;;;;;;;0.75;0.75;;;;;;;16.56;100.00;100577.59;5079435;28;20686;-72
2022/10/26 04:31:59;;;;;;;0.80;0.80;;;;;;;16.38;100.00;100573.19;5057417;28;20205;-73
2022/10/26 04:34:26;;;;;;;0.80;0.80;;;;;;;16.40;100.00;100574.97;5078150;28;20206;-73
2022/10/26 04:36:53;;;;;;;0.90;0.90;;;;;;;16.40;100.00;100580.19;5075003;28;20203;-73
2022/10/26 04:39:19;;;;;;;0.70;0.70;;;;;;;16.35;100.00;100583.69;5076494;28;20207;-76
2022/10/26 04:41:46;;;;;;;0.80;0.80;;;;;;;16.21;100.00;100574.09;5071742;28;20221;-73
2022/10/26 04:44:13;;;;;;;0.80;0.80;;;;;;;16.31;100.00;100583.66;5073859;28;20221;-73
2022/10/26 04:46:41;;;;;;;0.77;0.77;;;;;;;16.21;100.00;100574.97;5076831;28;20207;-73
2022/10/26 04:49:08;;;;;;;0.80;0.80;;;;;;;16.14;100.00;100581.06;5077246;28;20198;-73
2022/10/26 04:51:34;;;;;;;0.90;0.90;;;;;;;16.10;100.00;100581.94;5074129;28;20233;-74
2022/10/26 04:54:02;;;;;;;0.80;0.80;;;;;;;16.12;100.00;100574.97;5073773;28;20662;-74
2022/10/26 04:56:29;;;;;;;0.90;0.90;;;;;;;16.21;100.00;100581.94;5076533;28;20247;-73
2022/10/26 04:58:56;;;;;;;0.70;0.70;;;;;;;16.02;100.00;100540.94;5074040;28;20313;-73
2022/10/26 05:01:23;;;;;;;0.70;0.70;;;;;;;16.33;100.00;100577.59;5073977;28;20214;-73
2022/10/26 05:03:52;;;;;;;0.82;0.82;;;;;;;16.36;100.00;100574.97;5078966;28;20225;-71
2022/10/26 05:06:19;;;;;;;0.80;0.80;;;;;;;16.20;100.00;100567.97;5076793;28;20742;-72
2022/10/26 05:08:46;;;;;;;0.80;0.80;;;;;;;16.30;100.00;100585.41;5074669;28;20677;-72
2022/10/26 05:11:12;;;;;;;0.90;0.90;;;;;;;16.34;100.00;100588.91;5073646;28;20202;-72
2022/10/26 05:13:39;;;;;;;0.80;0.80;;;;;;;16.40;100.00;100585.44;5075530;28;20209;-72
2022/10/26 05:16:07;;;;;;;0.93;0.93;;;;;;;16.57;100.00;100599.41;5060921;28;20195;-72
2022/10/26 05:18:34;;;;;;;0.77;0.77;;;;;;;16.56;100.00;100585.44;5064327;28;20191;-72
2022/10/26 05:21:02;;;;;;;0.60;0.60;;;;;;;16.76;100.00;100595.91;5071931;28;20210;-73
2022/10/26 05:23:29;;;;;;;0.60;0.60;;;;;;;16.36;100.00;100550.53;5058566;28;20219;-73
2022/10/26 05:25:56;;;;;;;0.60;0.60;;;;;;;16.69;100.00;100594.16;5076232;28;20210;-72
2022/10/26 05:28:23;;;;;;;0.77;0.77;;;;;;;16.87;100.00;100607.22;5058619;28;20234;-73
2022/10/26 05:30:49;;;;;;;0.60;0.60;;;;;;;16.69;100.00;100612.50;5063990;28;20196;-73
2022/10/26 05:33:16;;;;;;;0.70;0.70;;;;;;;16.69;100.00;100615.09;5071699;28;20206;-72
2022/10/26 05:35:43;;;;;;;0.60;0.60;;;;;;;16.09;100.00;100517.41;5074611;28;20201;-72
2022/10/26 05:38:14;;;;;;;0.60;0.60;;;;;;;16.84;100.00;100615.06;5080164;28;21044;-72
2022/10/26 05:40:47;;;;;;;0.55;0.55;;;;;;;16.86;100.00;100618.56;5070284;28;20272;-73
2022/10/26 05:43:14;;;;;;;0.60;0.60;;;;;;;16.74;100.00;100621.19;5070574;28;20313;-71
2022/10/26 05:45:41;;;;;;;0.60;0.60;;;;;;;16.93;100.00;100629.91;5072255;28;20210;-73
2022/10/26 05:48:07;;;;;;;0.60;0.60;;;;;;;16.98;100.00;100631.63;5071756;28;20199;-73
2022/10/26 05:50:34;;;;;;;0.60;0.60;;;;;;;16.99;100.00;100636.00;5069951;28;20718;-72
2022/10/26 05:53:01;;;;;;;0.70;0.70;;;;;;;17.12;100.00;100637.69;5069680;28;20202;-73
2022/10/26 05:55:30;;;;;;;0.80;0.80;;;;;;;16.98;100.00;100612.44;5070151;28;20203;-73
2022/10/26 05:57:58;;;;;;;0.60;0.60;;;;;;;16.73;100.00;100595.91;5055737;28;20217;-73
2022/10/26 06:00:26;;;;;;;0.68;0.68;;;;;;;17.25;100.00;100665.63;5070130;28;20206;-73
2022/10/26 06:03:12;;;;;;;0.60;0.60;;;;;;;17.26;100.00;100662.16;5069922;28;20577;-73
2022/10/26 06:05:51;;;;;;;0.60;0.60;;;;;;;17.34;100.00;100657.72;5007877;28;20657;-72
2022/10/26 06:08:18;;;;;;;0.65;0.65;;;;;;;17.10;100.00;100638.59;4988277;28;20209;-72
2022/10/26 06:10:47;;;;;;;1.35;1.35;;;;;;;17.18;100.00;100624.59;5000729;28;20259;-72
2022/10/26 06:13:14;;;;;;;0.60;0.60;;;;;;;17.43;100.00;100669.06;5007777;28;20226;-73
2022/10/26 06:15:51;;;;;;;0.60;0.60;;;;;;;17.55;100.00;100674.28;5008131;28;20240;-73
2022/10/26 06:18:28;;;;;;;0.60;0.60;;;;;;;17.47;100.00;100671.69;5007855;28;20208;-73
2022/10/26 06:21:12;;;;;;;0.70;0.70;;;;;;;17.30;100.00;100657.78;5007825;28;20209;-72
2022/10/26 06:23:47;;;;;;;0.60;0.60;;;;;;;17.33;100.00;100658.63;5008660;28;20228;-71
2022/10/26 06:26:34;;;;;;;0.60;0.60;;;;;;;17.47;100.00;100682.19;5011874;28;20195;-71
2022/10/26 06:29:12;;;;;;;0.70;0.70;;;;;;;17.46;100.00;100679.53;5011841;28;20201;-74
2022/10/26 06:31:39;;;;;;;0.80;0.80;;;;;;;17.50;100.00;100681.28;5012093;28;20279;-72
2022/10/26 06:34:06;;;;;;;0.70;0.70;;;;;;;17.49;100.00;100679.53;5011562;28;20218;-73
2022/10/26 06:36:34;;;;;;;0.60;0.60;;;;;;;17.57;100.00;100683.03;5011729;28;20208;-72
2022/10/26 06:39:04;;;;;;;0.60;0.60;;;;;;;17.80;100.00;100692.53;5011420;28;20208;-73
2022/10/26 06:41:34;;;;;;;0.60;0.60;;;;;;;17.72;100.00;100696.09;5011330;28;20201;-73
2022/10/26 06:44:02;;;;;;;0.82;0.82;;;;;;;17.95;100.00;100703.84;5071563;28;20238;-72
2022/10/26 06:46:39;;;;;;;0.93;0.93;;;;;;;17.95;100.00;100707.34;5055071;28;20194;-73
2022/10/26 06:49:14;;;;;;;0.70;0.70;;;;;;;17.86;100.00;100696.91;5073378;28;20206;-73
2022/10/26 06:51:47;;;;;;;0.60;0.60;;;;;;;17.94;100.00;100710.88;5073346;28;20232;-72
2022/10/26 06:54:19;;;;;;;0.73;0.73;;;;;;;17.83;100.00;100702.19;5073471;28;20703;-72
2022/10/26 06:56:48;;;;;;;0.70;0.70;;;;;;;17.77;100.00;100687.31;5073717;28;20591;-73
2022/10/26 06:59:22;;;;;;;0.60;0.60;;;;;;;18.12;100.00;100721.25;5073084;28;20578;-74
2022/10/26 07:01:49;;;;;;;0.70;0.70;;;;;;;18.05;100.00;100719.53;5073023;28;20194;-72
2022/10/26 07:04:15;;;;;;;0.70;0.70;;;;;;;18.07;100.00;100717.78;5073143;28;20954;-71
2022/10/26 07:06:42;;;;;;;0.60;0.60;;;;;;;18.08;100.00;100724.78;5072962;28;20671;-71
2022/10/26 07:09:09;;;;;;;0.60;0.60;;;;;;;18.02;100.00;100722.19;5073083;28;20573;-71
2022/10/26 07:11:36;;;;;;;3.03;1.40;;;;;;;18.18;100.00;100726.47;5072967;28;20617;-71
2022/10/26 07:14:04;;;;;;;0.70;0.70;;;;;;;18.38;100.00;100722.84;5072777;28;20202;-71
2022/10/26 07:16:30;;;;;;;0.50;0.50;;;;;;;18.39;100.00;100714.09;5072793;28;20210;-72
2022/10/26 07:18:57;;;;;;;0.60;0.60;;;;;;;18.68;100.00;100728.81;5072707;28;20293;-71
2022/10/26 07:21:24;;;;;;;0.77;0.77;;;;;;;18.76;100.00;100726.13;5072802;28;20191;-72
2022/10/26 07:23:51;;;;;;;1.02;1.02;;;;;;;18.80;100.00;100728.69;5037338;28;20726;-72
2022/10/26 07:26:18;;;;;;;0.50;0.50;;;;;;;18.71;100.00;100734.03;5072863;28;20199;-72
2022/10/26 07:28:48;;;;;;;0.63;0.63;;;;;;;18.92;100.00;100727.72;5037199;28;20199;-72
2022/10/26 07:31:16;;;;;;;0.60;0.60;;;;;;;18.96;100.00;100731.19;5072731;28;20689;-72
2022/10/26 07:33:44;;;;;;;0.57;0.57;;;;;;;19.08;100.00;100734.59;5072344;28;20194;-72
2022/10/26 07:36:10;;;;;;;0.60;0.60;;;;;;;19.11;100.00;100734.56;5071933;28;20202;-73
2022/10/26 07:38:38;;;;;;;0.60;0.60;;;;;;;19.20;100.00;100739.72;5072762;28;20678;-73
2022/10/26 07:41:05;;;;;;;0.70;0.70;;;;;;;19.29;100.00;100739.66;5054173;28;20652;-71
2022/10/26 07:43:32;;;;;;;0.70;0.70;;;;;;;19.22;100.00;100737.97;5037068;28;20222;-73
2022/10/26 07:45:58;;;;;;;0.60;0.60;;;;;;;19.28;100.00;100730.00;5072029;28;20210;-74
2022/10/26 07:48:27;;;;;;;1.70;1.58;;;;;;;19.31;100.00;100748.38;5072370;28;20202;-72
2022/10/26 07:50:53;;;;;;;0.60;0.60;;;;;;;19.39;99.83;100737.78;5072002;28;20226;-72
2022/10/26 07:53:20;;;;;;;0.90;0.90;;;;;;;19.48;98.41;100750.88;5053542;28;20670;-72
2022/10/26 07:55:53;;;;;;;0.75;0.75;;;;;;;19.24;99.38;100715.16;5072190;28;20210;-72
2022/10/26 07:58:22;;;;;;;1.70;1.60;;;;;;;19.30;99.19;100733.47;5072206;28;21274;-72
2022/10/26 08:00:49;;;;;;;0.60;0.60;;;;;;;19.35;98.87;100743.09;5072159;28;20194;-72
2022/10/26 08:03:16;;;;;;;0.77;0.77;;;;;;;19.15;98.93;100715.25;5072212;28;20710;-72
2022/10/26 08:05:46;;;;;;;0.60;0.60;;;;;;;19.49;99.15;100749.13;5071989;28;20684;-73
2022/10/26 08:08:13;;;;;;;0.60;0.60;;;;;;;19.24;100.00;100714.28;5071972;28;20226;-73
2022/10/26 08:10:42;;;;;;;0.60;0.60;;;;;;;19.66;98.35;100745.41;5071802;28;20687;-73
2022/10/26 08:13:09;;;;;;;0.60;0.60;;;;;;;19.74;97.49;100743.56;5071720;28;20234;-72
2022/10/26 08:15:36;;;;;;;0.80;0.80;;;;;;;20.04;95.16;100741.44;5071745;28;20202;-73
2022/10/26 08:18:03;;;;;;;0.60;0.60;;;;;;;20.17;93.48;100751.78;5071623;28;20202;-73
2022/10/26 08:20:30;;;;;;;0.80;0.80;;;;;;;20.10;92.14;100744.88;5071783;28;20203;-72
2022/10/26 08:22:58;;;;;;;0.70;0.70;;;;;;;20.17;91.66;100743.03;5071519;28;20663;-72
2022/10/26 08:25:25;;;;;;;0.60;0.60;;;;;;;20.11;91.96;100749.25;5071833;28;20210;-72
2022/10/26 08:27:51;;;;;;;0.60;0.60;;;;;;;20.14;91.52;100749.22;5071477;28;20206;-72
2022/10/26 08:30:18;;;;;;;0.60;0.60;;;;;;;20.44;89.66;100747.06;5071565;28;20294;-73
2022/10/26 08:32:45;;;;;;;0.68;0.68;;;;;;;20.45;89.23;100739.13;5071524;28;20198;-73
2022/10/26 08:35:12;;;;;;;0.50;0.50;;;;;;;20.12;90.19;100729.91;5071453;28;20201;-72
2022/10/26 08:37:39;;;;;;;0.60;0.60;;;;;;;20.58;88.16;100739.84;5071363;28;20602;-72
2022/10/26 08:40:15;;;;;;;0.70;0.70;;;;;;;20.43;87.63;100725.13;5071429;28;20202;-73
2022/10/26 08:42:47;;;;;;;0.70;0.70;;;;;;;20.68;87.82;100746.69;5071266;28;20206;-73
2022/10/26 08:45:24;;;;;;;0.60;0.60;;;;;;;20.76;87.19;100737.75;5035914;28;20199;-73
2022/10/26 08:47:56;;;;;;;0.60;0.60;;;;;;;20.71;87.51;100747.53;5071016;28;20205;-73
2022/10/26 08:50:28;;;;;;;0.60;0.60;;;;;;;20.96;86.65;100747.13;5070988;28;20238;-73
2022/10/26 08:53:03;;;;;;;0.60;0.60;;;;;;;20.92;86.45;100746.31;5052953;28;20449;-73
2022/10/26 08:55:40;;;;;;;0.60;0.60;;;;;;;21.12;85.34;100749.50;5068290;28;20203;-73
2022/10/26 08:58:14;;;;;;;0.65;0.65;;;;;;;20.95;86.03;100748.88;5068581;28;20206;-73
2022/10/26 09:00:41;;;;;;;0.60;0.60;;;;;;;20.95;85.47;100754.16;5060380;28;20605;-74
2022/10/26 09:03:14;;;;;;;0.60;0.60;;;;;;;21.13;84.19;100756.50;5070773;28;20226;-74
2022/10/26 09:05:51;;;;;;;0.60;0.60;;;;;;;21.21;83.64;100748.47;5070940;28;20233;-74
2022/10/26 09:08:25;;;;;;;1.10;1.10;;;;;;;21.44;82.66;100748.91;5070452;28;20732;-74
2022/10/26 09:11:02;;;;;;;0.60;0.60;;;;;;;21.40;82.28;100726.16;5049811;28;20259;-73
2022/10/26 09:13:42;;;;;;;0.60;0.60;;;;;;;21.50;81.95;100750.59;5060113;28;20209;-74
2022/10/26 09:16:23;;;;;;;0.50;0.50;;;;;;;21.66;81.26;100749.38;5070751;28;20198;-78
2022/10/26 09:19:00;;;;;;;0.60;0.60;;;;;;;21.71;79.48;100723.75;5070412;28;20206;-72
2022/10/26 09:21:38;;;;;;;0.63;0.63;;;;;;;21.49;79.62;100712.75;5070064;28;20230;-73
2022/10/26 09:24:12;;;;;;;0.60;0.60;;;;;;;21.79;78.29;100744.75;5057475;28;20684;-73
2022/10/26 09:26:52;;;;;;;0.85;0.85;;;;;;;21.92;77.66;100739.19;5051134;28;20206;-72
2022/10/26 09:29:19;;;;;;;0.60;0.60;;;;;;;21.87;77.75;100741.03;5052937;28;20252;-74
2022/10/26 09:31:49;;;;;;;0.60;0.60;;;;;;;21.95;76.59;100747.06;5069991;28;20679;-74
2022/10/26 09:34:27;;;;;;;0.60;0.60;;;;;;;21.94;76.47;100737.38;5070396;28;20206;-72
2022/10/26 09:36:55;;;;;;;0.60;0.60;;;;;;;21.74;76.15;100731.63;5070150;28;20194;-72
2022/10/26 09:39:30;;;;;;;0.70;0.70;;;;;;;21.84;76.10;100725.25;5070422;28;20715;-73
2022/10/26 09:42:04;;;;;;;0.70;0.70;;;;;;;22.05;75.60;100723.94;5069987;28;20692;-72
2022/10/26 09:44:38;;;;;;;1.35;1.35;;;;;;;22.17;75.13;100737.78;5070153;28;20226;-73
2022/10/26 09:47:14;;;;;;;0.80;0.80;;;;;;;22.11;73.84;100737.03;5070227;28;20217;-73
2022/10/26 09:49:47;;;;;;;0.60;0.60;;;;;;;22.06;74.00;100738.91;5070118;28;20230;-72
2022/10/26 09:52:14;;;;;;;0.50;0.50;;;;;;;22.23;72.99;100735.00;5069962;28;20199;-73
2022/10/26 09:54:41;;;;;;;0.60;0.60;;;;;;;22.39;72.99;100730.25;5069918;28;20214;-73
2022/10/26 09:57:10;;;;;;;0.60;0.60;;;;;;;22.27;71.45;100730.50;5069733;28;20207;-73
2022/10/26 09:59:40;;;;;;;0.60;0.60;;;;;;;22.31;71.48;100708.41;5069484;28;20203;-75
2022/10/26 10:02:32;;;;;;;0.70;0.70;;;;;;;22.62;69.60;100727.91;5069881;28;20199;-75
2022/10/26 10:05:00;;;;;;;0.60;0.60;;;;;;;22.31;70.73;100724.25;5073066;28;20285;-74
2022/10/26 10:07:26;;;;;;;0.50;0.50;;;;;;;22.05;71.98;100713.38;5072446;28;20823;-74
2022/10/26 10:10:08;;;;;;;0.60;0.60;;;;;;;22.39;70.95;100724.09;5059886;28;20241;-73
2022/10/26 10:12:36;;;;;;;0.60;0.60;;;;;;;22.45;70.31;100726.56;5068442;28;20198;-72
2022/10/26 10:15:03;;;;;;;0.60;0.60;;;;;;;22.41;69.88;100715.19;5070200;28;20217;-73
2022/10/26 10:17:30;;;;;;;0.60;0.60;;;;;;;22.53;69.55;100716.69;5055630;28;20205;-73
2022/10/26 10:20:07;;;;;;;0.60;0.60;;;;;;;22.83;68.18;100715.97;5069734;28;20206;-73
2022/10/26 10:22:34;;;;;;;0.70;0.70;;;;;;;22.81;68.20;100707.22;5069652;28;20213;-71
2022/10/26 10:25:02;;;;;;;0.60;0.60;;;;;;;23.03;66.60;100686.38;5069795;28;20222;-72
2022/10/26 10:27:32;;;;;;;0.60;0.60;;;;;;;23.19;65.40;100715.03;5069917;28;20203;-72
2022/10/26 10:30:20;;;;;;;0.70;0.70;;;;;;;23.15;63.04;100713.38;5069912;28;20209;-72
2022/10/26 10:33:03;;;;;;;0.60;0.60;;;;;;;23.00;64.42;100707.63;5066879;28;20643;-72
2022/10/26 10:35:30;;;;;;;0.60;0.60;;;;;;;23.12;63.36;100702.88;5025517;28;20203;-73
2022/10/26 10:37:57;;;;;;;0.80;0.80;;;;;;;23.09;64.39;100702.97;5034213;28;20206;-73
2022/10/26 10:40:26;;;;;;;1.63;1.00;;;;;;;23.19;63.43;100693.84;5069718;28;20214;-73
2022/10/26 10:43:03;;;;;;;0.57;0.57;;;;;;;23.27;63.64;100698.06;5069458;28;20340;-74
2022/10/26 10:45:31;;;;;;;0.57;0.57;;;;;;;23.27;62.70;100706.00;5069532;28;20230;-73
2022/10/26 10:48:01;;;;;;;0.70;0.70;;;;;;;23.19;63.32;100693.84;5069495;28;20210;-73
2022/10/26 10:50:29;;;;;;;0.52;0.52;;;;;;;23.25;62.81;100676.97;5069311;28;20237;-73
2022/10/26 10:53:15;;;;;;;0.50;0.50;;;;;;;23.64;61.42;100693.53;5069076;28;20207;-73
2022/10/26 10:55:48;;;;;;;0.52;0.52;;;;;;;23.66;60.44;100681.97;5069321;28;20199;-73
2022/10/26 10:58:23;;;;;;;0.60;0.60;;;;;;;23.69;60.60;100683.66;5060361;28;20211;-73
2022/10/26 11:00:53;;;;;;;0.60;0.60;;;;;;;23.72;60.14;100691.56;5067597;28;20674;-74
2022/10/26 11:03:42;;;;;;;0.60;0.60;;;;;;;23.88;59.35;100689.28;5069723;28;20659;-73
2022/10/26 11:06:17;;;;;;;0.50;0.50;;;;;;;23.58;59.58;100686.63;5069354;28;20294;-73
2022/10/26 11:08:49;;;;;;;0.60;0.60;;;;;;;23.66;59.70;100675.81;5069814;28;20965;-73
2022/10/26 11:11:20;;;;;;;0.50;0.50;;;;;;;23.75;58.15;100683.50;5071311;28;20202;-73
2022/10/26 11:13:55;;;;;;;0.60;0.60;;;;;;;23.83;57.78;100685.94;5073151;28;20206;-73
2022/10/26 11:16:29;;;;;;;0.60;0.60;;;;;;;23.77;58.04;100681.66;5073065;28;20650;-73
2022/10/26 11:19:01;;;;;;;0.77;0.77;;;;;;;23.59;57.92;100648.66;5073190;28;20202;-73
2022/10/26 11:21:30;;;;;;;0.60;0.60;;;;;;;23.66;59.02;100679.34;5073100;28;20211;-73
2022/10/26 11:24:13;;;;;;;0.60;0.60;;;;;;;24.01;58.81;100686.22;5037471;28;20276;-73
2022/10/26 11:26:45;;;;;;;0.60;0.60;;;;;;;23.89;57.42;100676.03;5072946;28;20275;-72
2022/10/26 11:29:22;;;;;;;0.55;0.55;;;;;;;23.77;56.71;100681.66;5072814;28;20339;-73
2022/10/26 11:31:54;;;;;;;0.60;0.60;;;;;;;23.90;56.11;100682.19;5073015;28;20260;-73
2022/10/26 11:34:27;;;;;;;0.50;0.50;;;;;;;24.03;55.97;100684.41;5072665;28;20199;-72